createdAt,value
2022-07-30T00:01:53.736Z,1014.93
2022-07-30T00:06:46.504Z,1014.82
2022-07-30T00:11:39.236Z,1014.75
2022-07-30T00:16:31.825Z,1014.66
2022-07-30T00:21:34.793Z,1014.79
2022-07-30T00:26:16.933Z,1014.9
2022-07-30T00:31:09.576Z,1014.82
2022-07-30T00:36:02.386Z,1014.75
2022-07-30T00:40:55.003Z,1014.71
2022-07-30T00:45:47.752Z,1014.78
2022-07-30T00:50:40.026Z,1014.82
2022-07-30T00:55:32.935Z,1014.87
2022-07-30T01:00:25.738Z,1014.84
2022-07-30T01:05:18.723Z,1014.81
2022-07-30T01:10:11.117Z,1014.83
2022-07-30T01:15:03.566Z,1014.94
2022-07-30T01:19:56.067Z,1014.93
2022-07-30T01:24:48.931Z,1014.92
2022-07-30T01:29:41.413Z,1015.03
2022-07-30T01:34:33.638Z,1015.09
2022-07-30T01:39:26.179Z,1015.11
2022-07-30T01:44:23.849Z,1015.14
2022-07-30T01:49:11.542Z,1015.22
2022-07-30T01:54:04.075Z,1015.27
2022-07-30T01:58:56.509Z,1015.29
2022-07-30T02:03:49.455Z,1015.35
2022-07-30T02:08:41.955Z,1015.34
2022-07-30T02:13:34.873Z,1015.39
2022-07-30T02:18:27.544Z,1015.4
2022-07-30T02:23:20.240Z,1015.36
2022-07-30T02:28:12.689Z,1015.32
2022-07-30T02:37:58.052Z,1015.31
2022-07-30T02:47:43.135Z,1015.18
2022-07-30T02:52:35.687Z,1015.16
2022-07-30T02:57:28.383Z,1015.1
2022-07-30T03:07:13.359Z,1015.14
2022-07-30T03:12:05.718Z,1015.18
2022-07-30T03:16:58.590Z,1015.19
2022-07-30T03:21:50.711Z,1015.19
2022-07-30T03:26:43.492Z,1015.24
2022-07-30T03:31:37.854Z,1015.24
2022-07-30T03:36:28.677Z,1015.23
2022-07-30T03:41:21.290Z,1015.22
2022-07-30T03:46:13.928Z,1015.29
2022-07-30T03:51:06.465Z,1015.27
2022-07-30T03:55:59.163Z,1015.25
2022-07-30T04:00:51.668Z,1015.32
2022-07-30T04:05:44.187Z,1015.33
2022-07-30T04:16:05.281Z,1015.41
2022-07-30T04:20:18.444Z,1015.4
2022-07-30T04:25:11.057Z,1015.44
2022-07-30T04:30:03.594Z,1015.4
2022-07-30T04:34:55.705Z,1015.38
2022-07-30T04:39:48.189Z,1015.44
2022-07-30T04:44:40.660Z,1015.58
2022-07-30T04:49:32.630Z,1015.63
2022-07-30T04:54:25.062Z,1015.66
2022-07-30T04:59:17.778Z,1015.63
2022-07-30T05:04:10.405Z,1015.69
2022-07-30T05:09:02.990Z,1015.71
2022-07-30T05:13:55.690Z,1015.72
2022-07-30T05:18:48.334Z,1015.72
2022-07-30T05:23:40.883Z,1015.71
2022-07-30T05:28:33.569Z,1015.65
2022-07-30T05:33:38.870Z,1015.64
2022-07-30T05:38:18.967Z,1015.61
2022-07-30T05:43:11.519Z,1015.56
2022-07-30T05:48:03.907Z,1015.57
2022-07-30T05:52:56.513Z,1015.63
2022-07-30T05:57:48.429Z,1015.68
2022-07-30T06:02:41.198Z,1015.7
2022-07-30T06:07:33.242Z,1015.72
2022-07-30T06:12:25.873Z,1015.68
2022-07-30T06:17:18.360Z,1015.64
2022-07-30T06:22:10.919Z,1015.67
2022-07-30T06:27:03.706Z,1015.62
2022-07-30T06:31:55.455Z,1015.49
2022-07-30T06:41:35.509Z,1015.48
2022-07-30T06:46:29.406Z,1015.69
2022-07-30T06:51:22.150Z,1015.83
2022-07-30T06:56:14.498Z,1015.88
2022-07-30T07:01:10.721Z,1016.11
2022-07-30T07:05:59.628Z,1016.15
2022-07-30T07:10:52.343Z,1016.17
2022-07-30T07:15:45.069Z,1016.21
2022-07-30T07:20:37.501Z,1016.2
2022-07-30T07:25:30.488Z,1016.22
2022-07-30T07:30:22.799Z,1016.27
2022-07-30T07:35:15.312Z,1016.3
2022-07-30T07:40:07.708Z,1016.27
2022-07-30T07:45:00.803Z,1016.36
2022-07-30T07:49:53.410Z,1016.36
2022-07-30T07:54:45.931Z,1016.27
2022-07-30T07:59:40.426Z,1016.33
2022-07-30T08:04:31.118Z,1016.34
2022-07-30T08:09:23.740Z,1016.38
2022-07-30T08:14:16.299Z,1016.46
2022-07-30T08:19:09.446Z,1016.49
2022-07-30T08:24:02.073Z,1016.53
2022-07-30T08:28:54.660Z,1016.59
2022-07-30T08:33:47.494Z,1016.61
2022-07-30T08:38:40.092Z,1016.66
2022-07-30T08:43:32.619Z,1016.68
2022-07-30T08:53:17.868Z,1016.73
2022-07-30T09:03:03.297Z,1016.81
2022-07-30T09:12:48.513Z,1016.8
2022-07-30T09:17:40.975Z,1016.83
2022-07-30T09:22:33.725Z,1016.89
2022-07-30T09:27:26.266Z,1016.9
2022-07-30T09:32:18.856Z,1016.91
2022-07-30T09:37:12.647Z,1017.02
2022-07-30T09:42:04.557Z,1017.02
2022-07-30T09:46:56.794Z,1017.06
2022-07-30T09:51:54.814Z,1017.05
2022-07-30T09:56:42.658Z,1017.09
2022-07-30T10:01:46.929Z,1017.08
2022-07-30T10:06:27.683Z,1017.1
2022-07-30T10:11:22.609Z,1017.11
2022-07-30T10:16:12.687Z,1017.13
2022-07-30T10:21:05.786Z,1017.13
2022-07-30T10:25:58.003Z,1017.13
2022-07-30T10:30:50.811Z,1017.14
2022-07-30T10:35:44.445Z,1017.14
2022-07-30T10:40:37.672Z,1017.24
2022-07-30T10:45:29.550Z,1017.22
2022-07-30T10:50:22.666Z,1017.25
2022-07-30T10:55:15.739Z,1017.25
2022-07-30T11:00:07.623Z,1017.33
2022-07-30T11:05:00.301Z,1017.35
2022-07-30T11:10:04.256Z,1017.37
2022-07-30T11:14:45.572Z,1017.38
2022-07-30T11:19:51.717Z,1017.39
2022-07-30T11:24:30.930Z,1017.41
2022-07-30T11:29:25.239Z,1017.39
2022-07-30T11:34:15.937Z,1017.33
2022-07-30T11:39:08.697Z,1017.28
2022-07-30T11:44:01.329Z,1017.32
2022-07-30T11:48:53.967Z,1017.33
2022-07-30T11:53:46.525Z,1017.31
2022-07-30T11:58:38.958Z,1017.37
2022-07-30T12:03:31.178Z,1017.42
2022-07-30T12:08:31.834Z,1017.44
2022-07-30T12:13:16.321Z,1017.44
2022-07-30T12:18:25.666Z,1017.42
2022-07-30T12:23:01.630Z,1017.51
2022-07-30T12:27:54.099Z,1017.56
2022-07-30T12:32:46.822Z,1017.61
2022-07-30T12:37:39.681Z,1017.61
2022-07-30T12:42:32.659Z,1017.61
2022-07-30T12:47:25.037Z,1017.6
2022-07-30T12:52:18.589Z,1017.6
2022-07-30T12:57:09.844Z,1017.59
2022-07-30T13:02:02.627Z,1017.54
2022-07-30T13:06:54.995Z,1017.53
2022-07-30T13:11:48.577Z,1017.54
2022-07-30T13:16:39.708Z,1017.53
2022-07-30T13:21:31.787Z,1017.54
2022-07-30T13:26:24.087Z,1017.48
2022-07-30T13:31:16.531Z,1017.54
2022-07-30T13:36:09.323Z,1017.5
2022-07-30T13:41:02.805Z,1017.54
2022-07-30T13:45:54.364Z,1017.57
2022-07-30T13:50:46.723Z,1017.56
2022-07-30T13:55:38.960Z,1017.53
2022-07-30T14:00:31.199Z,1017.55
2022-07-30T14:05:23.949Z,1017.52
2022-07-30T14:10:16.717Z,1017.55
2022-07-30T14:15:09.161Z,1017.56
2022-07-30T14:20:01.249Z,1017.55
2022-07-30T14:24:54.407Z,1017.55
2022-07-30T14:29:47.020Z,1017.42
2022-07-30T14:34:39.875Z,1017.43
2022-07-30T14:39:32.416Z,1017.48
2022-07-30T14:44:24.927Z,1017.52
2022-07-30T14:49:17.618Z,1017.49
2022-07-30T14:59:02.345Z,1017.53
2022-07-30T15:08:46.998Z,1017.59
2022-07-30T15:18:32.194Z,1017.63
2022-07-30T15:23:24.347Z,1017.71
2022-07-30T15:28:16.913Z,1017.66
2022-07-30T15:33:09.859Z,1017.65
2022-07-30T15:38:02.385Z,1017.65
2022-07-30T15:42:55.061Z,1017.64
2022-07-30T15:47:47.967Z,1017.63
2022-07-30T15:52:40.672Z,1017.64
2022-07-30T15:57:33.418Z,1017.58
2022-07-30T16:02:25.730Z,1017.59
2022-07-30T16:07:18.714Z,1017.57
2022-07-30T16:12:11.439Z,1017.6
2022-07-30T16:17:03.968Z,1017.58
2022-07-30T16:21:56.064Z,1017.61
2022-07-30T16:26:48.691Z,1017.58
2022-07-30T16:31:41.535Z,1017.6
2022-07-30T16:36:34.383Z,1017.58
2022-07-30T16:41:26.577Z,1017.59
2022-07-30T16:46:19.484Z,1017.5
2022-07-30T16:51:12.156Z,1017.5
2022-07-30T16:56:04.969Z,1017.47
2022-07-30T17:00:56.894Z,1017.5
2022-07-30T17:05:49.535Z,1017.5
2022-07-30T17:10:42.213Z,1017.47
2022-07-30T17:15:34.847Z,1017.48
2022-07-30T17:20:27.567Z,1017.54
2022-07-30T17:25:20.123Z,1017.56
2022-07-30T17:30:12.631Z,1017.54
2022-07-30T17:35:05.461Z,1017.59
2022-07-30T17:40:04.170Z,1017.58
2022-07-30T17:44:50.612Z,1017.57
2022-07-30T17:49:43.251Z,1017.63
2022-07-30T17:54:35.570Z,1017.63
2022-07-30T17:59:28.221Z,1017.61
2022-07-30T18:04:20.832Z,1017.62
2022-07-30T18:09:13.843Z,1017.58
2022-07-30T18:14:06.337Z,1017.59
2022-07-30T18:18:58.771Z,1017.68
2022-07-30T18:23:51.936Z,1017.65
2022-07-30T18:28:44.491Z,1017.63
2022-07-30T18:33:37.139Z,1017.68
2022-07-30T18:38:29.902Z,1017.7
2022-07-30T18:43:22.369Z,1017.73
2022-07-30T18:48:15.113Z,1017.76
2022-07-30T18:53:15.106Z,1017.81
2022-07-30T18:58:00.278Z,1017.81
2022-07-30T19:02:53.027Z,1017.76
2022-07-30T19:07:48.256Z,1017.78
2022-07-30T19:12:38.892Z,1017.8
2022-07-30T19:17:45.534Z,1017.83
2022-07-30T19:22:29.482Z,1017.84
2022-07-30T19:27:16.493Z,1017.9
2022-07-30T19:32:08.876Z,1017.9
2022-07-30T19:37:01.414Z,1017.94
2022-07-30T19:41:54.027Z,1017.99
2022-07-30T19:46:46.640Z,1018.03
2022-07-30T19:52:07.535Z,1018.05
2022-07-30T19:56:35.064Z,1018.09
2022-07-30T20:01:24.165Z,1018.12
2022-07-30T20:06:16.608Z,1018.09
2022-07-30T20:11:09.440Z,1018.21
2022-07-30T20:16:02.083Z,1018.24
2022-07-30T20:20:54.258Z,1018.26
2022-07-30T20:25:46.923Z,1018.34
2022-07-30T20:35:32.516Z,1018.33
2022-07-30T20:45:17.519Z,1018.29
2022-07-30T20:55:03.167Z,1018.31
2022-07-30T21:04:48.201Z,1018.27
2022-07-30T21:09:50.023Z,1018.23
2022-07-30T21:14:32.910Z,1018.2
2022-07-30T21:19:25.203Z,1018.15
2022-07-30T21:24:17.568Z,1018.14
2022-07-30T21:29:09.940Z,1018.14
2022-07-30T21:34:02.495Z,1018.13
2022-07-30T21:38:54.811Z,1018.08
2022-07-30T21:43:49.316Z,1018.06
2022-07-30T21:48:40.933Z,1018.06
2022-07-30T21:53:45.408Z,1018.08
2022-07-30T21:58:26.630Z,1018.15
2022-07-30T22:04:01.054Z,1018.19
2022-07-30T22:08:10.862Z,1018.22
2022-07-30T22:13:03.375Z,1018.27
2022-07-30T22:17:58.503Z,1018.29
2022-07-30T22:22:48.463Z,1018.27
2022-07-30T22:27:56.520Z,1018.21
2022-07-30T22:32:34.073Z,1018.21
2022-07-30T22:37:26.602Z,1018.17
2022-07-30T22:42:19.368Z,1018.19
2022-07-30T22:47:19.084Z,1018.21
2022-07-30T22:52:08.843Z,1018.19
2022-07-30T22:56:57.124Z,1018.2
2022-07-30T23:01:49.818Z,1018.1
2022-07-30T23:06:42.234Z,1018.09
2022-07-30T23:11:37.161Z,1018.12
2022-07-30T23:16:27.189Z,1018.1
2022-07-30T23:21:19.845Z,1018.08
2022-07-30T23:26:12.555Z,1018.06
2022-07-30T23:31:04.876Z,1017.99
2022-07-30T23:35:57.698Z,1018.06
2022-07-30T23:40:50.249Z,1018.07
2022-07-30T23:45:42.695Z,1018.08
2022-07-30T23:50:35.175Z,1018.05
2022-07-30T23:55:27.673Z,1018.08
